Time;durP1;ratioP1;P1;durP2;ratioP2;P2;SDS_P1;SDS_P2;PMS_P1;PMS_P2;Temp;Humidity;BMP_temperature;BMP_pressure;BME280_temperature;BME280_humidity;BME280_pressure;Samples;Min_cycle;Max_cycle;Signal;HPM_P1;HPM_P2
2021/03/08 00:01:18;;;;;;;14.00;11.43;;;5.40;51.70;;;;;;6298293;28;20945;-65
2021/03/08 00:04:20;;;;;;;12.50;11.07;;;5.50;51.70;;;;;;6299285;28;20983;-65
2021/03/08 00:07:22;;;;;;;14.70;11.10;;;5.40;51.70;;;;;;6299824;28;20480;-65
2021/03/08 00:10:25;;;;;;;14.17;12.10;;;5.40;51.50;;;;;;6299710;28;20476;-65
2021/03/08 00:13:27;;;;;;;13.40;10.90;;;5.40;51.60;;;;;;6299848;28;20952;-65
2021/03/08 00:16:29;;;;;;;12.80;11.27;;;5.50;51.70;;;;;;6299504;28;20477;-65
2021/03/08 00:19:32;;;;;;;12.43;10.60;;;5.40;51.80;;;;;;6299158;28;20814;-65
2021/03/08 00:22:35;;;;;;;12.60;10.27;;;5.40;51.80;;;;;;6299593;28;20466;-65
2021/03/08 00:25:38;;;;;;;12.93;10.47;;;5.40;51.80;;;;;;6299290;28;20469;-65
2021/03/08 00:28:40;;;;;;;14.73;10.93;;;5.50;51.70;;;;;;6299316;28;20816;-65
2021/03/08 00:31:42;;;;;;;11.23;9.70;;;5.60;51.80;;;;;;6299420;28;20477;-65
2021/03/08 00:34:45;;;;;;;11.43;10.27;;;5.60;51.30;;;;;;6299212;28;20811;-65
2021/03/08 00:37:47;;;;;;;10.53;9.43;;;5.70;51.20;;;;;;6299289;28;20476;-65
2021/03/08 00:40:51;;;;;;;15.00;10.47;;;5.70;51.30;;;;;;6299216;28;20968;-65
2021/03/08 00:43:54;;;;;;;11.80;10.10;;;5.70;51.60;;;;;;6299355;28;20470;-65
2021/03/08 00:46:57;;;;;;;10.50;9.37;;;5.80;52.20;;;;;;6294336;28;20469;-65
2021/03/08 00:49:59;;;;;;;11.17;10.13;;;5.80;52.20;;;;;;6299116;28;20469;-65
2021/03/08 00:53:01;;;;;;;12.30;10.83;;;5.70;52.60;;;;;;6299498;28;20477;-64
2021/03/08 00:56:05;;;;;;;12.43;11.13;;;5.50;52.30;;;;;;6298976;28;20483;-65
2021/03/08 00:59:07;;;;;;;12.87;10.93;;;5.40;52.60;;;;;;6299370;28;20553;-65
2021/03/08 01:02:09;;;;;;;12.27;11.07;;;5.30;52.90;;;;;;6298915;28;20477;-65
2021/03/08 01:05:14;;;;;;;13.50;9.33;;;5.20;53.30;;;;;;6298803;28;20477;-65
2021/03/08 01:08:16;;;;;;;11.53;10.33;;;5.20;53.40;;;;;;6302994;28;20471;-65
2021/03/08 01:11:19;;;;;;;11.63;10.53;;;5.30;53.60;;;;;;6303397;28;20458;-65
2021/03/08 01:14:22;;;;;;;13.00;10.07;;;5.40;53.00;;;;;;6303295;28;20825;-65
2021/03/08 01:17:24;;;;;;;11.53;10.43;;;5.50;53.00;;;;;;6303436;28;20480;-65
2021/03/08 01:20:27;;;;;;;11.00;9.83;;;5.50;52.90;;;;;;6303010;28;20481;-65
2021/03/08 01:23:29;;;;;;;10.63;8.93;;;5.60;52.80;;;;;;6303184;28;20487;-65
2021/03/08 01:26:32;;;;;;;10.50;9.33;;;5.60;52.80;;;;;;6302994;28;20488;-64
2021/03/08 01:29:34;;;;;;;11.33;10.23;;;5.50;52.60;;;;;;6303211;28;20475;-65
2021/03/08 01:32:36;;;;;;;12.63;9.43;;;5.50;52.60;;;;;;6303263;28;20476;-65
2021/03/08 01:35:42;;;;;;;11.80;10.60;;;5.50;52.90;;;;;;6303055;28;20473;-65
2021/03/08 01:38:44;;;;;;;14.40;9.80;;;5.50;53.20;;;;;;6303015;28;20480;-65
2021/03/08 01:41:47;;;;;;;11.40;9.30;;;5.40;53.30;;;;;;6302894;28;20495;-65
2021/03/08 01:44:50;;;;;;;11.37;9.20;;;5.40;53.40;;;;;;6303103;28;20484;-65
2021/03/08 01:47:53;;;;;;;12.63;9.50;;;5.40;53.50;;;;;;6303433;28;20480;-64
2021/03/08 01:50:55;;;;;;;11.30;9.87;;;5.50;53.70;;;;;;6302721;28;20548;-64
2021/03/08 01:53:59;;;;;;;11.37;9.73;;;5.50;53.40;;;;;;6303236;28;20480;-64
2021/03/08 01:57:02;;;;;;;10.40;9.13;;;5.50;53.30;;;;;;6302423;28;20483;-64
2021/03/08 02:00:06;;;;;;;10.53;9.53;;;5.50;53.50;;;;;;6301992;28;20992;-64
2021/03/08 02:03:09;;;;;;;12.00;9.93;;;5.60;53.50;;;;;;6302581;28;20434;-64
2021/03/08 02:06:11;;;;;;;10.80;9.33;;;5.60;53.70;;;;;;6302040;28;20809;-64
2021/03/08 02:09:14;;;;;;;12.40;10.43;;;5.60;53.70;;;;;;6302494;28;20939;-64
2021/03/08 02:12:28;;;;;;;12.43;10.37;;;5.60;54.00;;;;;;6302378;28;20433;-64
2021/03/08 02:15:40;;;;;;;11.90;10.70;;;5.70;53.60;;;;;;6302311;28;20470;-64
2021/03/08 02:18:49;;;;;;;10.70;9.50;;;5.60;53.40;;;;;;6301597;28;20473;-64
2021/03/08 02:22:08;;;;;;;12.30;10.20;;;5.60;53.70;;;;;;6301761;28;20809;-65
2021/03/08 02:25:30;;;;;;;15.10;11.60;;;5.50;53.90;;;;;;6302045;28;20480;-64
2021/03/08 02:29:06;;;;;;;13.73;12.03;;;5.50;54.40;;;;;;6301921;28;20484;-65
2021/03/08 02:32:12;;;;;;;10.97;9.83;;;5.50;55.00;;;;;;6299227;28;20939;-65
2021/03/08 02:35:19;;;;;;;12.50;11.27;;;5.40;55.00;;;;;;6301599;28;20812;-65
2021/03/08 02:38:24;;;;;;;11.60;10.40;;;5.40;55.10;;;;;;6301712;28;20466;-64
2021/03/08 02:41:27;;;;;;;11.83;10.07;;;5.40;55.00;;;;;;6301347;28;20566;-65
2021/03/08 02:44:33;;;;;;;10.30;8.67;;;5.40;54.90;;;;;;6301639;28;20984;-65
2021/03/08 02:47:41;;;;;;;14.00;10.70;;;5.40;55.00;;;;;;6302023;28;20513;-65
2021/03/08 02:50:46;;;;;;;13.40;10.33;;;5.30;55.80;;;;;;6301230;28;20465;-64
2021/03/08 02:53:52;;;;;;;11.40;10.30;;;5.20;55.20;;;;;;6301678;28;20473;-64
2021/03/08 02:56:59;;;;;;;9.67;8.73;;;5.10;55.40;;;;;;6301066;28;20496;-64
2021/03/08 03:00:04;;;;;;;13.77;10.60;;;5.10;55.70;;;;;;6291592;28;20580;-64
2021/03/08 03:03:08;;;;;;;10.60;9.60;;;5.20;55.80;;;;;;6301056;28;20434;-64
2021/03/08 03:06:12;;;;;;;11.00;9.90;;;5.20;55.60;;;;;;6300977;28;20471;-65
2021/03/08 03:09:16;;;;;;;13.47;10.00;;;5.30;55.50;;;;;;6300731;28;20914;-65
2021/03/08 03:12:19;;;;;;;13.13;10.07;;;5.30;56.30;;;;;;6300881;28;20453;-66
2021/03/08 03:15:22;;;;;;;11.60;10.43;;;5.30;56.00;;;;;;6300909;28;20476;-65
2021/03/08 03:18:28;;;;;;;10.90;9.80;;;5.40;56.10;;;;;;6300393;28;20921;-65
2021/03/08 03:21:35;;;;;;;11.53;9.80;;;5.50;55.80;;;;;;6300266;28;20465;-65
2021/03/08 03:24:39;;;;;;;13.47;9.13;;;5.40;55.60;;;;;;6300473;28;20476;-65
2021/03/08 03:27:42;;;;;;;12.13;10.80;;;5.50;56.00;;;;;;6300149;28;20484;-65
2021/03/08 03:30:46;;;;;;;12.73;10.07;;;5.50;55.90;;;;;;6300106;28;20476;-65
2021/03/08 03:33:49;;;;;;;14.70;9.40;;;5.50;55.50;;;;;;6300096;28;20973;-65
2021/03/08 03:36:52;;;;;;;10.80;8.87;;;5.50;55.80;;;;;;6299980;28;20960;-65
2021/03/08 03:39:55;;;;;;;11.03;9.50;;;5.50;55.80;;;;;;6300253;28;20487;-64
2021/03/08 03:42:57;;;;;;;13.60;9.70;;;5.50;55.70;;;;;;6300073;28;20782;-65
2021/03/08 03:46:01;;;;;;;11.93;10.73;;;5.40;55.80;;;;;;6300158;28;20596;-66
2021/03/08 03:49:04;;;;;;;9.07;8.27;;;5.40;56.00;;;;;;6300187;28;20484;-65
2021/03/08 03:52:07;;;;;;;10.10;8.70;;;5.50;56.10;;;;;;6300087;28;20805;-65
2021/03/08 03:55:12;;;;;;;11.83;9.90;;;5.60;56.00;;;;;;6299780;28;20886;-65
2021/03/08 03:58:21;;;;;;;11.03;8.87;;;5.60;55.90;;;;;;6300064;28;20552;-65
2021/03/08 04:01:30;;;;;;;11.17;8.90;;;5.70;55.80;;;;;;6290607;28;20539;-66
2021/03/08 04:04:37;;;;;;;10.57;9.57;;;5.70;56.00;;;;;;6299760;28;20473;-66
2021/03/08 04:07:43;;;;;;;11.50;9.27;;;5.70;56.00;;;;;;6299617;28;20472;-65
2021/03/08 04:10:48;;;;;;;12.60;9.60;;;5.70;56.10;;;;;;6299771;28;20454;-64
2021/03/08 04:13:50;;;;;;;13.53;9.60;;;5.70;56.30;;;;;;6299663;28;20469;-65
2021/03/08 04:16:55;;;;;;;10.77;9.50;;;5.60;56.50;;;;;;6299830;28;20481;-65
2021/03/08 04:20:00;;;;;;;11.67;9.80;;;5.40;56.60;;;;;;6299527;28;20623;-65
2021/03/08 04:23:06;;;;;;;12.90;11.70;;;5.40;56.80;;;;;;6299465;28;20788;-65
2021/03/08 04:26:11;;;;;;;9.53;8.37;;;5.40;56.80;;;;;;6299327;28;20469;-65
2021/03/08 04:29:15;;;;;;;14.20;9.20;;;5.50;57.00;;;;;;6299321;28;20495;-65
2021/03/08 04:32:18;;;;;;;10.40;9.17;;;5.50;57.10;;;;;;6299975;28;20470;-65
2021/03/08 04:35:26;;;;;;;12.07;8.10;;;5.60;57.00;;;;;;6299416;28;20530;-65
2021/03/08 04:38:30;;;;;;;11.20;9.63;;;5.60;57.00;;;;;;6299333;28;20483;-65
2021/03/08 04:41:32;;;;;;;10.03;9.03;;;5.70;57.10;;;;;;6300777;28;20965;-65
2021/03/08 04:44:36;;;;;;;13.03;9.17;;;5.70;57.30;;;;;;6304046;28;21006;-65
2021/03/08 04:47:41;;;;;;;9.83;8.83;;;5.70;57.50;;;;;;6304066;28;20986;-65
2021/03/08 04:50:45;;;;;;;11.50;9.20;;;5.70;57.70;;;;;;6304214;28;20469;-64
2021/03/08 04:53:48;;;;;;;10.40;8.80;;;5.70;57.80;;;;;;6304174;28;20959;-64
2021/03/08 04:57:08;;;;;;;13.63;10.13;;;5.60;57.70;;;;;;6303752;28;20619;-65
2021/03/08 05:00:13;;;;;;;20.00;12.17;;;5.60;57.70;;;;;;6303857;28;20452;-65
2021/03/08 05:03:17;;;;;;;18.63;13.87;;;5.50;58.10;;;;;;6299780;28;20438;-65
2021/03/08 05:06:21;;;;;;;19.83;14.67;;;5.50;58.70;;;;;;6303935;28;20465;-64
2021/03/08 05:09:26;;;;;;;16.47;13.87;;;5.40;58.80;;;;;;6303676;28;20932;-65
2021/03/08 05:12:30;;;;;;;21.27;15.33;;;5.30;58.90;;;;;;6304177;28;20622;-64
2021/03/08 05:15:34;;;;;;;17.97;14.47;;;5.20;59.10;;;;;;6303800;28;20479;-64
2021/03/08 05:18:39;;;;;;;16.77;14.97;;;5.20;59.30;;;;;;6303767;28;20798;-64
2021/03/08 05:21:42;;;;;;;23.50;17.03;;;5.20;59.30;;;;;;6303529;28;20476;-65
2021/03/08 05:24:50;;;;;;;25.50;18.80;;;5.20;59.40;;;;;;6303028;28;20469;-65
2021/03/08 05:27:52;;;;;;;16.27;14.33;;;5.20;59.50;;;;;;6303411;28;20481;-64
2021/03/08 05:30:57;;;;;;;15.73;13.33;;;5.20;59.60;;;;;;6303480;28;20547;-65
2021/03/08 05:34:03;;;;;;;20.83;15.60;;;5.10;59.80;;;;;;6303258;28;20465;-65
2021/03/08 05:37:08;;;;;;;22.43;15.80;;;5.10;60.00;;;;;;6302931;28;20809;-65
2021/03/08 05:40:21;;;;;;;21.23;14.43;;;5.20;60.10;;;;;;6303339;28;20462;-65
2021/03/08 05:43:27;;;;;;;16.60;12.43;;;5.20;60.10;;;;;;6303323;28;20476;-64
2021/03/08 05:46:45;;;;;;;14.57;12.37;;;5.30;60.40;;;;;;6302680;28;20980;-64
2021/03/08 05:50:02;;;;;;;14.67;10.80;;;5.30;61.30;;;;;;6302810;28;20470;-65
2021/03/08 05:53:26;;;;;;;19.90;14.77;;;5.40;60.30;;;;;;6302312;28;20469;-65
2021/03/08 05:56:40;;;;;;;14.80;11.90;;;5.40;60.30;;;;;;6302379;28;20466;-65
2021/03/08 06:00:08;;;;;;;23.97;15.87;;;5.50;60.40;;;;;;6302521;28;20477;-64
2021/03/08 06:03:20;;;;;;;14.83;12.97;;;5.40;60.70;;;;;;6303042;28;20459;-64
2021/03/08 06:07:10;;;;;;;18.43;14.60;;;5.40;60.80;;;;;;6297812;28;20774;-65
2021/03/08 06:10:22;;;;;;;24.03;13.47;;;5.40;60.90;;;;;;6226071;28;20484;-64
2021/03/08 06:13:32;;;;;;;18.43;13.40;;;5.40;61.00;;;;;;6232225;28;20960;-63
2021/03/08 06:16:35;;;;;;;20.37;15.70;;;5.50;61.20;;;;;;6302203;28;20538;-64
2021/03/08 06:19:39;;;;;;;29.63;16.80;;;5.50;61.00;;;;;;6302039;28;20485;-64
2021/03/08 06:22:43;;;;;;;24.20;14.90;;;5.60;60.50;;;;;;6302341;28;20474;-64
2021/03/08 06:25:46;;;;;;;26.73;16.20;;;5.60;60.50;;;;;;6301457;28;20477;-65
2021/03/08 06:28:49;;;;;;;24.50;18.27;;;5.60;60.90;;;;;;6301764;28;20476;-64
2021/03/08 06:31:52;;;;;;;25.57;17.33;;;5.50;61.40;;;;;;6302076;28;20462;-65
2021/03/08 06:34:54;;;;;;;26.03;18.10;;;5.50;61.70;;;;;;6302070;28;20477;-65
2021/03/08 06:37:56;;;;;;;23.83;17.57;;;5.50;62.10;;;;;;6302162;28;20480;-64
2021/03/08 06:41:02;;;;;;;22.67;17.03;;;5.60;62.20;;;;;;6301343;28;20481;-64
2021/03/08 06:44:04;;;;;;;19.57;17.50;;;5.70;62.60;;;;;;6301741;28;20480;-64
2021/03/08 06:47:08;;;;;;;26.00;18.33;;;5.80;61.90;;;;;;6301382;28;20473;-64
2021/03/08 06:50:12;;;;;;;19.30;16.63;;;5.90;61.80;;;;;;6301601;28;20484;-64
2021/03/08 06:53:30;;;;;;;19.27;16.37;;;5.90;61.90;;;;;;6301348;28;20815;-64
2021/03/08 06:56:34;;;;;;;23.80;17.93;;;5.80;63.20;;;;;;6300922;28;20485;-64
2021/03/08 06:59:52;;;;;;;24.03;17.60;;;5.90;62.30;;;;;;6301261;28;20465;-65
2021/03/08 07:02:54;;;;;;;25.83;16.50;;;5.90;62.40;;;;;;6301193;28;20807;-65
2021/03/08 07:06:12;;;;;;;20.90;16.53;;;6.00;62.30;;;;;;6300149;28;20557;-65
2021/03/08 07:09:17;;;;;;;23.30;19.00;;;6.10;62.30;;;;;;6300957;28;20456;-66
2021/03/08 07:12:21;;;;;;;29.13;18.23;;;6.20;61.90;;;;;;6296079;28;20445;-67
2021/03/08 07:15:26;;;;;;;19.87;17.60;;;6.40;61.60;;;;;;6300369;28;20825;-65
2021/03/08 07:18:29;;;;;;;20.60;17.93;;;6.50;61.40;;;;;;6300659;28;20445;-65
2021/03/08 07:21:31;;;;;;;25.43;17.33;;;6.60;61.00;;;;;;6300035;28;20487;-65
2021/03/08 07:24:33;;;;;;;19.07;15.70;;;6.70;60.40;;;;;;6300564;28;20465;-65
2021/03/08 07:27:41;;;;;;;23.03;17.57;;;6.80;60.10;;;;;;6300164;28;20552;-65
2021/03/08 07:30:43;;;;;;;18.43;15.70;;;6.90;60.00;;;;;;6299929;28;20797;-65
2021/03/08 07:33:58;;;;;;;22.30;16.63;;;7.00;59.90;;;;;;6300130;28;20916;-66
2021/03/08 07:37:02;;;;;;;21.90;16.07;;;7.10;59.80;;;;;;6300301;28;20477;-66
2021/03/08 07:40:06;;;;;;;24.83;16.93;;;7.30;59.60;;;;;;6300005;28;20799;-66
2021/03/08 07:43:21;;;;;;;19.00;14.07;;;7.60;59.10;;;;;;6300052;28;20799;-65
2021/03/08 07:46:29;;;;;;;18.80;13.57;;;7.80;57.90;;;;;;6299918;28;20474;-65
2021/03/08 07:49:33;;;;;;;14.77;12.90;;;8.10;57.40;;;;;;6299564;28;20473;-67
2021/03/08 07:52:36;;;;;;;16.80;12.90;;;8.40;57.50;;;;;;6300290;28;20473;-66
2021/03/08 07:55:38;;;;;;;15.20;12.90;;;10.70;53.60;;;;;;6299796;28;20473;-66
2021/03/08 07:58:42;;;;;;;26.43;13.93;;;14.00;47.80;;;;;;6299622;28;20469;-67
2021/03/08 08:01:48;;;;;;;16.93;13.93;;;17.20;41.40;;;;;;6299548;28;20485;-65
2021/03/08 08:04:51;;;;;;;18.03;14.23;;;19.60;35.50;;;;;;6299571;28;20620;-64
2021/03/08 08:07:55;;;;;;;17.60;14.57;;;21.50;32.00;;;;;;6299544;28;20474;-64
2021/03/08 08:10:59;;;;;;;15.03;13.53;;;21.60;30.30;;;;;;6297497;28;20436;-63
2021/03/08 08:14:05;;;;;;;16.17;13.67;;;20.50;30.60;;;;;;6296789;28;20268;-65
2021/03/08 08:17:14;;;;;;;15.60;12.87;;;20.70;30.80;;;;;;6287920;28;20246;-65
2021/03/08 08:20:18;;;;;;;16.70;15.07;;;22.40;29.40;;;;;;6297309;28;20251;-65
2021/03/08 08:23:24;;;;;;;18.80;13.83;;;23.70;27.70;;;;;;6298414;28;20227;-65
2021/03/08 08:26:27;;;;;;;13.67;12.47;;;25.00;27.50;;;;;;6298990;28;20234;-65
2021/03/08 08:29:33;;;;;;;14.00;12.67;;;25.40;25.80;;;;;;6298369;28;20238;-65
2021/03/08 08:32:50;;;;;;;14.87;11.70;;;26.00;25.60;;;;;;6298482;28;20214;-65
2021/03/08 08:36:19;;;;;;;13.03;11.83;;;27.20;24.10;;;;;;6298525;28;20222;-66
2021/03/08 08:39:21;;;;;;;13.40;12.20;;;27.60;23.20;;;;;;6296069;28;20211;-65
2021/03/08 08:42:24;;;;;;;13.07;11.77;;;28.60;22.70;;;;;;6299166;28;20222;-65
2021/03/08 08:45:31;;;;;;;14.27;12.70;;;28.50;22.50;;;;;;6299128;28;20207;-65
2021/03/08 08:48:33;;;;;;;13.80;12.40;;;29.30;21.70;;;;;;6300058;28;20222;-66
2021/03/08 08:51:50;;;;;;;13.57;12.47;;;29.90;21.10;;;;;;6298962;28;20548;-66
2021/03/08 08:54:56;;;;;;;12.30;11.20;;;31.60;20.30;;;;;;6298963;28;20245;-66
2021/03/08 08:58:24;;;;;;;13.23;11.83;;;31.60;20.00;;;;;;6299310;28;20260;-66
2021/03/08 09:01:37;;;;;;;12.82;11.75;;;31.80;19.20;;;;;;6293354;28;20223;-65
2021/03/08 09:04:40;;;;;;;13.10;11.88;;;32.60;18.80;;;;;;6295515;28;20589;-65
2021/03/08 09:07:43;;;;;;;12.57;11.48;;;33.80;18.30;;;;;;6297268;28;20230;-64
2021/03/08 09:10:45;;;;;;;11.65;10.45;;;34.30;17.70;;;;;;6296243;28;20230;-65
2021/03/08 09:14:21;;;;;;;11.23;9.63;;;32.80;18.10;;;;;;6297055;28;20237;-65
2021/03/08 09:17:26;;;;;;;10.63;9.73;;;32.70;17.90;;;;;;6296711;28;20245;-66
2021/03/08 09:20:29;;;;;;;11.30;9.23;;;32.40;17.90;;;;;;6291910;28;20781;-66
2021/03/08 09:23:31;;;;;;;10.73;9.70;;;32.90;18.20;;;;;;6296253;28;20234;-65
2021/03/08 09:26:38;;;;;;;10.60;9.55;;;33.10;17.80;;;;;;6296501;28;20240;-65
2021/03/08 09:29:40;;;;;;;10.90;9.77;;;32.20;18.10;;;;;;6301577;28;20276;-66
2021/03/08 09:32:54;;;;;;;9.25;8.35;;;32.60;18.20;;;;;;6301268;28;20731;-65
2021/03/08 09:35:58;;;;;;;10.55;9.65;;;33.60;18.50;;;;;;6300645;28;20231;-65
2021/03/08 09:39:07;;;;;;;10.45;9.32;;;33.50;18.20;;;;;;6300468;28;20321;-65
2021/03/08 09:42:10;;;;;;;10.93;9.93;;;33.30;17.40;;;;;;6300064;28;20241;-66
2021/03/08 09:45:17;;;;;;;11.05;9.50;;;33.20;18.10;;;;;;6302566;28;20222;-66
2021/03/08 09:48:21;;;;;;;10.57;9.63;;;34.00;17.50;;;;;;6301915;28;20207;-65
2021/03/08 09:51:24;;;;;;;10.40;9.10;;;34.80;17.20;;;;;;6300996;28;20213;-65
2021/03/08 09:54:26;;;;;;;10.48;9.48;;;34.40;17.20;;;;;;6300310;28;20501;-66
2021/03/08 09:57:35;;;;;;;10.20;9.05;;;34.50;16.80;;;;;;6300839;28;20292;-65
2021/03/08 10:00:38;;;;;;;8.90;8.20;;;34.70;16.80;;;;;;6300814;28;20302;-65
2021/03/08 10:03:41;;;;;;;9.57;8.77;;;35.30;16.70;;;;;;6299539;28;20245;-65
2021/03/08 10:06:45;;;;;;;9.85;8.25;;;35.10;16.50;;;;;;6300793;28;20291;-65
2021/03/08 10:09:47;;;;;;;8.93;8.23;;;35.90;16.30;;;;;;6299262;28;20313;-66
2021/03/08 10:13:00;;;;;;;9.18;8.50;;;35.40;16.10;;;;;;6300692;28;20237;-66
2021/03/08 10:16:03;;;;;;;10.43;9.52;;;34.80;16.90;;;;;;6299951;28;20574;-64
2021/03/08 10:19:12;;;;;;;10.45;9.27;;;36.40;16.30;;;;;;6299620;28;20253;-64
2021/03/08 10:22:14;;;;;;;10.73;9.82;;;38.20;15.80;;;;;;6293921;28;20697;-63
2021/03/08 10:25:21;;;;;;;11.73;10.68;;;38.30;15.20;;;;;;6299356;28;20226;-63
2021/03/08 10:28:23;;;;;;;13.65;11.07;;;35.80;15.40;;;;;;6299497;28;20237;-63
2021/03/08 10:31:30;;;;;;;11.00;10.00;;;34.60;16.80;;;;;;6299719;28;20225;-64
2021/03/08 10:34:33;;;;;;;11.07;10.07;;;36.20;16.20;;;;;;6299436;28;20237;-65
2021/03/08 10:37:52;;;;;;;10.18;9.38;;;35.60;15.90;;;;;;6298337;28;20572;-66
2021/03/08 10:40:56;;;;;;;11.80;10.80;;;36.40;15.90;;;;;;6299677;28;20226;-65
2021/03/08 10:43:59;;;;;;;10.02;9.18;;;37.70;15.10;;;;;;6299505;28;20226;-65
2021/03/08 10:47:11;;;;;;;11.50;10.60;;;38.40;14.80;;;;;;6299129;28;20234;-65
2021/03/08 10:50:14;;;;;;;12.50;11.00;;;37.60;14.80;;;;;;6299410;28;20572;-65
2021/03/08 10:53:18;;;;;;;11.00;10.13;;;34.40;16.30;;;;;;6299045;28;20280;-66
2021/03/08 10:56:21;;;;;;;11.38;10.48;;;35.90;16.00;;;;;;6298626;28;20317;-65
2021/03/08 10:59:24;;;;;;;10.95;10.05;;;37.80;14.90;;;;;;6299364;28;20230;-65
2021/03/08 11:02:35;;;;;;;11.27;10.27;;;37.50;14.80;;;;;;6298002;28;20321;-65
2021/03/08 11:05:38;;;;;;;10.98;10.05;;;37.30;14.90;;;;;;6298601;28;20231;-64
2021/03/08 11:08:53;;;;;;;12.57;11.48;;;34.80;15.70;;;;;;6298610;28;20227;-65
2021/03/08 11:11:56;;;;;;;11.98;10.90;;;31.60;17.20;;;;;;6298638;28;20227;-65
2021/03/08 11:15:00;;;;;;;12.40;10.40;;;28.70;19.30;;;;;;6299095;28;20280;-64
2021/03/08 11:18:03;;;;;;;11.77;10.57;;;28.60;20.20;;;;;;6298583;28;20307;-64
2021/03/08 11:21:28;;;;;;;11.53;10.63;;;29.80;19.20;;;;;;6297830;28;20708;-65
2021/03/08 11:24:31;;;;;;;11.40;10.40;;;26.40;20.90;;;;;;6289858;28;20258;-65
2021/03/08 11:27:34;;;;;;;11.63;10.43;;;24.60;23.10;;;;;;6293272;28;20308;-64
2021/03/08 11:30:37;;;;;;;13.00;10.60;;;26.30;22.20;;;;;;6296283;28;20218;-64
2021/03/08 11:33:39;;;;;;;11.27;10.30;;;30.30;19.70;;;;;;6298438;28;20230;-63
2021/03/08 11:36:43;;;;;;;10.63;9.73;;;32.70;17.90;;;;;;6296278;28;20545;-62
2021/03/08 11:39:47;;;;;;;10.27;9.48;;;33.50;16.90;;;;;;6297445;28;20248;-61
2021/03/08 11:42:50;;;;;;;11.50;10.30;;;32.60;17.00;;;;;;6297156;28;20278;-61
2021/03/08 11:45:53;;;;;;;11.10;10.10;;;30.30;18.40;;;;;;6296835;28;20567;-61
2021/03/08 11:49:02;;;;;;;10.27;9.37;;;30.20;18.40;;;;;;6296205;28;20244;-61
2021/03/08 11:52:07;;;;;;;12.30;11.20;;;29.00;18.90;;;;;;6296144;28;20245;-61
2021/03/08 11:55:10;;;;;;;12.33;11.13;;;26.50;20.60;;;;;;6296906;28;20686;-61
2021/03/08 11:58:13;;;;;;;10.90;9.90;;;23.70;22.60;;;;;;6296914;28;20231;-61
2021/03/08 12:01:15;;;;;;;11.00;9.90;;;21.70;24.40;;;;;;6296870;28;20340;-62
2021/03/08 12:04:18;;;;;;;11.40;10.30;;;19.90;25.70;;;;;;6296626;28;20231;-61
2021/03/08 12:07:21;;;;;;;10.30;9.30;;;18.80;27.10;;;;;;6297102;28;20227;-62
2021/03/08 12:10:24;;;;;;;10.50;8.20;;;18.10;28.40;;;;;;6296589;28;20591;-60
2021/03/08 12:13:26;;;;;;;9.63;8.73;;;18.90;28.20;;;;;;6296589;28;20705;-60
2021/03/08 12:16:28;;;;;;;9.93;8.33;;;20.80;26.60;;;;;;6297071;28;20245;-62
2021/03/08 12:19:32;;;;;;;10.17;9.20;;;22.60;25.80;;;;;;6296964;28;20372;-61
2021/03/08 12:22:35;;;;;;;9.70;8.90;;;26.10;23.30;;;;;;6296703;28;20238;-62
2021/03/08 12:25:37;;;;;;;11.00;9.90;;;27.70;20.60;;;;;;6296284;28;20331;-63
2021/03/08 12:28:40;;;;;;;11.20;10.20;;;25.30;21.70;;;;;;6291348;28;20257;-63
2021/03/08 12:31:50;;;;;;;11.97;10.20;;;23.30;23.30;;;;;;6296816;28;20251;-64
2021/03/08 12:34:53;;;;;;;11.80;9.67;;;21.60;24.90;;;;;;6296285;28;20349;-64
2021/03/08 12:37:56;;;;;;;11.20;9.43;;;22.40;24.60;;;;;;6295919;28;20292;-63
2021/03/08 12:40:58;;;;;;;12.47;9.90;;;23.90;24.50;;;;;;6296922;28;20666;-63
2021/03/08 12:44:01;;;;;;;12.97;11.27;;;27.40;22.20;;;;;;6296021;28;20286;-61
2021/03/08 12:47:03;;;;;;;13.30;11.90;;;29.50;19.80;;;;;;6296785;28;20233;-65
2021/03/08 12:50:08;;;;;;;11.73;10.70;;;30.50;19.50;;;;;;6295906;28;20229;-63
2021/03/08 12:53:12;;;;;;;11.98;10.77;;;32.20;18.30;;;;;;6296165;28;20379;-63
2021/03/08 12:56:14;;;;;;;12.52;11.25;;;33.20;17.50;;;;;;6296259;28;20566;-63
2021/03/08 12:59:16;;;;;;;11.77;10.68;;;31.60;18.00;;;;;;6296004;28;20677;-63
2021/03/08 13:02:18;;;;;;;12.52;11.52;;;31.70;17.70;;;;;;6297476;28;20222;-63
2021/03/08 13:05:21;;;;;;;12.65;11.45;;;32.90;17.60;;;;;;6300554;28;20234;-63
2021/03/08 13:08:24;;;;;;;12.23;11.23;;;34.80;16.90;;;;;;6301308;28;20230;-64
2021/03/08 13:11:26;;;;;;;11.88;10.98;;;34.50;16.30;;;;;;6300428;28;20230;-64
2021/03/08 13:14:29;;;;;;;12.80;11.80;;;35.00;15.90;;;;;;6300874;28;20240;-63
2021/03/08 13:17:31;;;;;;;13.07;11.85;;;34.40;16.10;;;;;;6300201;28;20234;-62
2021/03/08 13:20:36;;;;;;;14.18;12.88;;;32.70;17.10;;;;;;6300153;28;20245;-63
2021/03/08 13:23:39;;;;;;;16.33;11.95;;;31.90;17.60;;;;;;6299572;28;20572;-62
2021/03/08 13:26:41;;;;;;;12.52;11.52;;;31.50;17.90;;;;;;6299095;28;20226;-64
2021/03/08 13:29:43;;;;;;;12.10;11.02;;;32.10;17.80;;;;;;6298986;28;20222;-63
2021/03/08 13:32:46;;;;;;;14.23;13.00;;;32.50;17.50;;;;;;6292800;28;20258;-64
2021/03/08 13:35:48;;;;;;;12.90;11.80;;;30.10;18.00;;;;;;6298090;28;20246;-63
2021/03/08 13:38:52;;;;;;;11.80;10.80;;;27.40;19.90;;;;;;6298042;28;20234;-62
2021/03/08 13:41:56;;;;;;;12.13;11.13;;;24.20;22.50;;;;;;6298980;28;20241;-61
2021/03/08 13:44:58;;;;;;;13.13;12.00;;;21.90;24.30;;;;;;6300084;28;20237;-61
2021/03/08 13:48:00;;;;;;;12.37;11.27;;;20.00;26.00;;;;;;6300636;28;20235;-61
2021/03/08 13:51:03;;;;;;;12.13;11.00;;;18.30;28.00;;;;;;6300800;28;20226;-62
2021/03/08 13:54:06;;;;;;;11.90;10.70;;;17.20;29.60;;;;;;6300564;28;20806;-61
2021/03/08 13:57:08;;;;;;;11.13;9.93;;;16.70;30.50;;;;;;6300257;28;20238;-61
2021/03/08 14:00:12;;;;;;;15.10;11.60;;;16.40;30.90;;;;;;6299594;28;20480;-61
2021/03/08 14:03:14;;;;;;;12.53;9.90;;;16.20;31.20;;;;;;6300517;28;21151;-61
2021/03/08 14:06:18;;;;;;;10.90;9.93;;;15.90;31.80;;;;;;6299466;28;20566;-61
2021/03/08 14:09:22;;;;;;;13.23;11.30;;;15.60;32.20;;;;;;6300048;28;20442;-61
2021/03/08 14:12:24;;;;;;;13.10;10.80;;;15.40;32.30;;;;;;6299873;28;20778;-61
2021/03/08 14:15:26;;;;;;;11.57;10.47;;;15.40;32.20;;;;;;6299404;28;20804;-61
2021/03/08 14:18:29;;;;;;;11.77;10.57;;;15.60;32.90;;;;;;6300306;28;20449;-63
2021/03/08 14:21:32;;;;;;;18.50;11.53;;;15.40;32.20;;;;;;6299554;28;20462;-61
2021/03/08 14:24:35;;;;;;;10.90;9.83;;;15.10;32.60;;;;;;6300065;28;20453;-62
2021/03/08 14:27:37;;;;;;;11.63;10.30;;;14.80;33.80;;;;;;6299151;28;20591;-61
2021/03/08 14:30:40;;;;;;;12.73;11.23;;;14.80;34.00;;;;;;6299956;28;20457;-62
2021/03/08 14:33:42;;;;;;;12.53;9.23;;;14.80;34.00;;;;;;6299492;28;20477;-61
2021/03/08 14:36:44;;;;;;;11.63;10.27;;;14.90;33.90;;;;;;6299325;28;20514;-61
2021/03/08 14:39:49;;;;;;;14.93;10.27;;;14.90;33.50;;;;;;6299030;28;20477;-63
2021/03/08 14:42:51;;;;;;;10.30;9.30;;;14.60;34.00;;;;;;6295991;28;20474;-62
2021/03/08 14:45:54;;;;;;;12.77;11.47;;;14.50;34.50;;;;;;6298081;28;20969;-61
2021/03/08 14:49:12;;;;;;;10.97;9.97;;;14.40;35.00;;;;;;6298642;28;20793;-62
2021/03/08 14:52:20;;;;;;;11.73;10.57;;;14.10;35.70;;;;;;6298767;28;20553;-62
2021/03/08 14:55:23;;;;;;;12.60;11.30;;;13.90;35.80;;;;;;6298815;28;20469;-62
2021/03/08 14:58:26;;;;;;;11.70;10.50;;;13.90;36.10;;;;;;6298342;28;20849;-62
2021/03/08 15:01:28;;;;;;;11.50;10.30;;;13.50;37.20;;;;;;6298488;28;20477;-62
2021/03/08 15:04:30;;;;;;;12.00;10.80;;;13.50;36.60;;;;;;6298535;28;21130;-62
2021/03/08 15:07:35;;;;;;;11.63;9.50;;;13.50;36.30;;;;;;6298757;28;20473;-62
2021/03/08 15:10:39;;;;;;;12.57;11.13;;;13.60;36.50;;;;;;6298157;28;20484;-62
2021/03/08 15:13:41;;;;;;;13.20;10.47;;;13.30;36.90;;;;;;6298063;28;20465;-62
2021/03/08 15:16:45;;;;;;;17.30;11.70;;;13.30;37.50;;;;;;6297914;28;20801;-61
2021/03/08 15:19:58;;;;;;;15.37;11.80;;;13.20;37.60;;;;;;6298022;28;20469;-63
2021/03/08 15:23:00;;;;;;;12.60;11.30;;;12.80;41.90;;;;;;6298359;28;20492;-61
2021/03/08 15:26:03;;;;;;;14.93;11.77;;;12.80;40.20;;;;;;6296137;28;20469;-61
2021/03/08 15:29:06;;;;;;;15.30;11.80;;;12.60;39.70;;;;;;6297742;28;20559;-63
2021/03/08 15:32:09;;;;;;;14.53;12.57;;;12.40;38.80;;;;;;6298140;28;20471;-62
2021/03/08 15:35:13;;;;;;;13.20;11.43;;;12.10;39.20;;;;;;6297798;28;20564;-63
2021/03/08 15:38:25;;;;;;;13.10;10.67;;;11.80;39.60;;;;;;6298060;28;20469;-63
2021/03/08 15:41:44;;;;;;;15.20;10.63;;;11.70;40.00;;;;;;6297630;28;20619;-63
2021/03/08 15:44:51;;;;;;;11.87;10.73;;;11.70;40.30;;;;;;6297688;28;20595;-64
2021/03/08 15:47:53;;;;;;;16.53;11.50;;;11.60;40.20;;;;;;6295996;28;20481;-61
2021/03/08 15:50:56;;;;;;;12.10;10.90;;;11.40;40.40;;;;;;6295618;28;20481;-61